sensor_id;sensor_type;location;lat;lon;timestamp;P1;durP1;ratioP1;P2;durP2;ratioP2
5776;SDS011;2914;42.668;23.346;2022-08-21T20:31:03;13.23;;;6.93;;
5776;SDS011;2914;42.668;23.346;2022-08-21T20:33:33;7.80;;;6.63;;
5776;SDS011;2914;42.668;23.346;2022-08-21T20:36:02;7.03;;;6.33;;
5776;SDS011;2914;42.668;23.346;2022-08-21T20:38:32;7.60;;;6.90;;
5776;SDS011;2914;42.668;23.346;2022-08-21T20:41:01;8.43;;;7.30;;
5776;SDS011;2914;42.668;23.346;2022-08-21T20:43:32;12.53;;;6.93;;
5776;SDS011;2914;42.668;23.346;2022-08-21T20:46:11;14.23;;;8.13;;
5776;SDS011;2914;42.668;23.346;2022-08-21T20:48:42;11.53;;;7.17;;
5776;SDS011;2914;42.668;23.346;2022-08-21T20:51:12;7.90;;;7.20;;
5776;SDS011;2914;42.668;23.346;2022-08-21T20:53:44;8.77;;;7.80;;
5776;SDS011;2914;42.668;23.346;2022-08-21T20:58:53;10.57;;;7.20;;
5776;SDS011;2914;42.668;23.346;2022-08-21T21:01:24;8.37;;;7.37;;
5776;SDS011;2914;42.668;23.346;2022-08-21T21:03:56;14.10;;;7.40;;
5776;SDS011;2914;42.668;23.346;2022-08-21T21:06:27;9.90;;;7.57;;
5776;SDS011;2914;42.668;23.346;2022-08-21T21:08:59;9.17;;;7.50;;
5776;SDS011;2914;42.668;23.346;2022-08-21T21:11:41;9.77;;;7.90;;
5776;SDS011;2914;42.668;23.346;2022-08-21T21:14:13;11.37;;;8.70;;
5776;SDS011;2914;42.668;23.346;2022-08-21T21:16:46;11.47;;;8.70;;
5776;SDS011;2914;42.668;23.346;2022-08-21T21:19:19;10.07;;;8.93;;
5776;SDS011;2914;42.668;23.346;2022-08-21T21:21:53;10.93;;;9.27;;
5776;SDS011;2914;42.668;23.346;2022-08-21T21:24:31;15.03;;;9.07;;
5776;SDS011;2914;42.668;23.346;2022-08-21T21:27:03;15.77;;;8.60;;
5776;SDS011;2914;42.668;23.346;2022-08-21T21:29:38;15.30;;;9.00;;
5776;SDS011;2914;42.668;23.346;2022-08-21T21:32:16;10.80;;;8.03;;
5776;SDS011;2914;42.668;23.346;2022-08-21T21:34:46;9.23;;;8.23;;
5776;SDS011;2914;42.668;23.346;2022-08-21T21:37:17;9.70;;;7.50;;
5776;SDS011;2914;42.668;23.346;2022-08-21T21:39:49;12.57;;;8.23;;
5776;SDS011;2914;42.668;23.346;2022-08-21T21:42:23;12.37;;;7.77;;
5776;SDS011;2914;42.668;23.346;2022-08-21T21:44:59;7.83;;;7.13;;
5776;SDS011;2914;42.668;23.346;2022-08-21T21:47:49;11.00;;;7.47;;
5776;SDS011;2914;42.668;23.346;2022-08-21T21:50:26;8.30;;;6.53;;
5776;SDS011;2914;42.668;23.346;2022-08-21T21:53:07;10.70;;;7.07;;
5776;SDS011;2914;42.668;23.346;2022-08-21T21:55:39;11.43;;;7.00;;
5776;SDS011;2914;42.668;23.346;2022-08-21T21:58:20;15.83;;;7.27;;
5776;SDS011;2914;42.668;23.346;2022-08-21T22:01:10;7.83;;;7.03;;
5776;SDS011;2914;42.668;23.346;2022-08-21T22:03:44;7.50;;;6.80;;
5776;SDS011;2914;42.668;23.346;2022-08-21T22:06:16;6.67;;;5.80;;
5776;SDS011;2914;42.668;23.346;2022-08-21T22:08:49;7.60;;;6.90;;
5776;SDS011;2914;42.668;23.346;2022-08-21T22:11:20;7.43;;;6.73;;
5776;SDS011;2914;42.668;23.346;2022-08-21T22:13:52;8.33;;;6.10;;
5776;SDS011;2914;42.668;23.346;2022-08-21T22:16:24;7.20;;;6.17;;
5776;SDS011;2914;42.668;23.346;2022-08-21T22:18:55;7.20;;;6.50;;
5776;SDS011;2914;42.668;23.346;2022-08-21T22:21:28;7.73;;;6.47;;
5776;SDS011;2914;42.668;23.346;2022-08-21T22:24:02;7.53;;;6.50;;
5776;SDS011;2914;42.668;23.346;2022-08-21T22:26:34;10.53;;;6.83;;
5776;SDS011;2914;42.668;23.346;2022-08-21T22:29:08;7.63;;;6.93;;
5776;SDS011;2914;42.668;23.346;2022-08-21T22:31:39;7.67;;;6.83;;
5776;SDS011;2914;42.668;23.346;2022-08-21T22:34:10;6.27;;;5.77;;
5776;SDS011;2914;42.668;23.346;2022-08-21T22:36:42;6.23;;;5.53;;
5776;SDS011;2914;42.668;23.346;2022-08-21T22:39:14;11.40;;;7.17;;
5776;SDS011;2914;42.668;23.346;2022-08-21T22:41:46;7.63;;;6.90;;
5776;SDS011;2914;42.668;23.346;2022-08-21T22:44:18;6.27;;;5.77;;
5776;SDS011;2914;42.668;23.346;2022-08-21T22:46:50;7.50;;;6.80;;
5776;SDS011;2914;42.668;23.346;2022-08-21T22:49:23;7.30;;;6.30;;
5776;SDS011;2914;42.668;23.346;2022-08-21T22:52:05;13.10;;;6.07;;
5776;SDS011;2914;42.668;23.346;2022-08-21T22:54:38;7.50;;;6.60;;
5776;SDS011;2914;42.668;23.346;2022-08-21T22:57:10;5.80;;;5.40;;
5776;SDS011;2914;42.668;23.346;2022-08-21T22:59:51;8.23;;;6.30;;
5776;SDS011;2914;42.668;23.346;2022-08-21T23:02:23;6.30;;;5.30;;
5776;SDS011;2914;42.668;23.346;2022-08-21T23:04:56;6.80;;;6.20;;
5776;SDS011;2914;42.668;23.346;2022-08-21T23:07:33;9.87;;;6.53;;
5776;SDS011;2914;42.668;23.346;2022-08-21T23:10:13;8.30;;;7.57;;
5776;SDS011;2914;42.668;23.346;2022-08-21T23:12:46;8.70;;;7.00;;
5776;SDS011;2914;42.668;23.346;2022-08-21T23:15:15;11.13;;;6.40;;
5776;SDS011;2914;42.668;23.346;2022-08-21T23:17:47;6.63;;;6.13;;
5776;SDS011;2914;42.668;23.346;2022-08-21T23:20:21;7.00;;;6.40;;
5776;SDS011;2914;42.668;23.346;2022-08-21T23:22:57;10.47;;;6.70;;
5776;SDS011;2914;42.668;23.346;2022-08-21T23:25:36;7.07;;;6.37;;
5776;SDS011;2914;42.668;23.346;2022-08-21T23:28:33;13.83;;;6.57;;
5776;SDS011;2914;42.668;23.346;2022-08-21T23:31:08;9.53;;;6.73;;
5776;SDS011;2914;42.668;23.346;2022-08-21T23:33:42;7.33;;;6.63;;
5776;SDS011;2914;42.668;23.346;2022-08-21T23:36:34;9.17;;;6.70;;
5776;SDS011;2914;42.668;23.346;2022-08-21T23:39:31;8.97;;;6.90;;
5776;SDS011;2914;42.668;23.346;2022-08-21T23:42:16;7.90;;;6.20;;
5776;SDS011;2914;42.668;23.346;2022-08-21T23:44:57;6.83;;;6.13;;
5776;SDS011;2914;42.668;23.346;2022-08-21T23:47:28;7.40;;;6.70;;
5776;SDS011;2914;42.668;23.346;2022-08-21T23:50:02;7.70;;;7.03;;
5776;SDS011;2914;42.668;23.346;2022-08-21T23:52:34;10.03;;;7.40;;
5776;SDS011;2914;42.668;23.346;2022-08-21T23:55:16;7.50;;;6.80;;
5776;SDS011;2914;42.668;23.346;2022-08-21T23:57:51;6.80;;;6.30;;
